Time;durP1;ratioP1;P1;durP2;ratioP2;P2;SDS_P1;SDS_P2;PMS_P1;PMS_P2;Temp;Humidity;BMP_temperature;BMP_pressure;BME280_temperature;BME280_humidity;BME280_pressure;Samples;Min_cycle;Max_cycle;Signal;HPM_P1;HPM_P2
2021/11/30 00:02:24;;;;;;;18.95;6.28;;;21.60;91.30;;;;;;5070181;28;20131;-55
2021/11/30 00:04:52;;;;;;;27.13;11.85;;;21.50;91.60;;;;;;5071690;28;20111;-60
2021/11/30 00:07:19;;;;;;;20.80;7.72;;;21.70;91.50;;;;;;5072009;28;20084;-59
2021/11/30 00:12:18;;;;;;;25.13;6.05;;;21.50;90.80;;;;;;5074410;28;20024;-54
2021/11/30 00:14:48;;;;;;;24.92;10.23;;;21.60;91.40;;;;;;5074042;28;20027;-56
2021/11/30 00:17:17;;;;;;;20.60;10.32;;;21.60;91.10;;;;;;5075648;28;20028;-51
2021/11/30 00:19:49;;;;;;;16.80;6.18;;;21.60;90.70;;;;;;5075799;28;20029;-53
2021/11/30 00:22:32;;;;;;;15.32;7.07;;;21.60;91.60;;;;;;5075455;28;20032;-50
2021/11/30 00:25:00;;;;;;;13.23;4.07;;;21.70;90.70;;;;;;5075398;28;20024;-61
2021/11/30 00:27:28;;;;;;;18.52;5.70;;;21.70;92.40;;;;;;5075526;28;20043;-61
2021/11/30 00:29:55;;;;;;;16.73;8.57;;;21.70;92.30;;;;;;5072781;28;20036;-60
2021/11/30 00:32:22;;;;;;;19.35;7.43;;;21.60;91.30;;;;;;5075237;28;20503;-61
2021/11/30 00:34:50;;;;;;;19.40;7.78;;;21.60;91.60;;;;;;5075227;28;20036;-58
2021/11/30 00:37:17;;;;;;;16.95;7.28;;;21.60;91.60;;;;;;5075284;28;20432;-54
2021/11/30 00:39:48;;;;;;;16.50;9.65;;;21.60;91.50;;;;;;5074416;28;20047;-55
2021/11/30 00:42:20;;;;;;;15.55;7.97;;;21.60;91.00;;;;;;5074471;28;20028;-60
2021/11/30 00:44:52;;;;;;;16.95;8.88;;;21.60;92.30;;;;;;5073967;28;20491;-54
2021/11/30 00:47:26;;;;;;;15.82;7.45;;;21.60;91.50;;;;;;5074153;28;20431;-58
2021/11/30 00:49:53;;;;;;;18.30;7.80;;;21.60;92.10;;;;;;5074461;28;20123;-53
2021/11/30 00:52:21;;;;;;;19.10;9.23;;;21.50;91.80;;;;;;5074115;28;20020;-56
2021/11/30 00:54:50;;;;;;;13.55;6.05;;;21.50;91.40;;;;;;5072828;28;20045;-55
2021/11/30 00:57:19;;;;;;;18.30;7.28;;;21.60;93.20;;;;;;5073951;28;20074;-59
2021/11/30 00:59:47;;;;;;;16.35;9.85;;;21.40;92.10;;;;;;5073839;28;20331;-58
2021/11/30 01:02:15;;;;;;;17.00;8.15;;;21.50;91.40;;;;;;5073981;28;20037;-55
2021/11/30 01:04:42;;;;;;;17.13;8.18;;;21.50;91.50;;;;;;5072343;28;20016;-56
2021/11/30 01:07:11;;;;;;;15.25;6.43;;;21.60;91.30;;;;;;5074132;28;20100;-58
2021/11/30 01:09:41;;;;;;;20.05;9.40;;;21.60;92.80;;;;;;5073851;28;20436;-56
2021/11/30 01:12:10;;;;;;;19.38;7.97;;;21.60;91.60;;;;;;5073500;28;20016;-57
2021/11/30 01:14:38;;;;;;;12.45;4.80;;;21.70;92.90;;;;;;5072803;28;20052;-57
2021/11/30 01:17:08;;;;;;;15.48;4.88;;;21.70;93.20;;;;;;5074406;28;20426;-55
2021/11/30 01:19:36;;;;;;;19.80;7.20;;;21.70;93.20;;;;;;5074046;28;20021;-54
2021/11/30 01:22:05;;;;;;;13.13;4.35;;;21.80;93.30;;;;;;5073651;28;20098;-57
2021/11/30 01:24:32;;;;;;;15.57;7.25;;;21.70;93.50;;;;;;5072773;28;20475;-58
2021/11/30 01:26:59;;;;;;;12.65;4.97;;;21.70;93.80;;;;;;5074031;28;20036;-62
2021/11/30 01:29:27;;;;;;;13.18;5.93;;;21.80;93.70;;;;;;5073751;28;20036;-56
2021/11/30 01:31:54;;;;;;;14.02;6.57;;;21.70;93.40;;;;;;5073340;28;20025;-60
2021/11/30 01:34:25;;;;;;;12.18;5.55;;;21.80;92.90;;;;;;5073579;28;20028;-57
2021/11/30 01:36:53;;;;;;;11.13;3.92;;;21.90;91.90;;;;;;5073915;28;20017;-55
2021/11/30 01:39:21;;;;;;;6.40;3.20;;;21.90;92.80;;;;;;5073217;28;20028;-59
2021/11/30 01:41:49;;;;;;;8.93;3.35;;;21.80;93.30;;;;;;5073265;28;20371;-61
2021/11/30 01:44:31;;;;;;;15.93;7.05;;;21.90;93.50;;;;;;5072495;28;20111;-61
2021/11/30 01:49:34;;;;;;;12.57;6.00;;;21.90;92.00;;;;;;5073266;28;20043;-57
2021/11/30 01:52:10;;;;;;;12.30;5.85;;;21.90;91.40;;;;;;5073207;28;20016;-53
2021/11/30 01:54:39;;;;;;;9.80;5.07;;;22.00;91.40;;;;;;5072268;28;20052;-58
2021/11/30 01:57:08;;;;;;;12.25;6.32;;;22.00;91.70;;;;;;5072978;28;20021;-60
2021/11/30 01:59:36;;;;;;;15.40;5.65;;;22.00;91.40;;;;;;5073059;28;20024;-60
2021/11/30 02:02:05;;;;;;;15.80;6.07;;;22.00;91.70;;;;;;5073190;28;20101;-59
2021/11/30 02:04:32;;;;;;;11.05;5.55;;;22.00;94.40;;;;;;5072804;28;20051;-61
2021/11/30 02:07:00;;;;;;;11.48;5.68;;;21.90;92.60;;;;;;5073341;28;20032;-59
2021/11/30 02:09:27;;;;;;;11.43;4.05;;;22.00;91.60;;;;;;5071257;28;20032;-59
2021/11/30 02:11:55;;;;;;;7.97;3.50;;;22.00;92.40;;;;;;5072826;28;20028;-58
2021/11/30 02:14:23;;;;;;;8.13;4.32;;;22.00;93.70;;;;;;5072621;28;20028;-60
2021/11/30 02:16:51;;;;;;;9.10;5.28;;;22.10;93.40;;;;;;5072700;28;20100;-60
2021/11/30 02:19:19;;;;;;;9.57;5.35;;;22.10;91.50;;;;;;5073192;28;20029;-59
2021/11/30 02:21:46;;;;;;;10.80;3.60;;;22.20;91.50;;;;;;5073009;28;20506;-54
2021/11/30 02:24:14;;;;;;;12.50;4.25;;;22.20;93.20;;;;;;5072435;28;20107;-60
2021/11/30 02:26:42;;;;;;;9.95;3.42;;;22.20;92.90;;;;;;5073012;28;20025;-56
2021/11/30 02:29:11;;;;;;;8.80;3.20;;;22.20;93.50;;;;;;5072843;28;20025;-59
2021/11/30 02:31:47;;;;;;;7.82;3.17;;;22.40;93.60;;;;;;5071460;28;20059;-59
2021/11/30 02:34:16;;;;;;;16.98;5.28;;;22.40;93.00;;;;;;5072250;28;20099;-57
2021/11/30 02:39:16;;;;;;;8.15;4.20;;;22.20;91.50;;;;;;5072335;28;20029;-57
2021/11/30 02:41:45;;;;;;;11.63;4.90;;;22.30;92.90;;;;;;5072283;28;20137;-57
2021/11/30 02:44:14;;;;;;;7.05;4.55;;;22.10;92.10;;;;;;5071295;28;20024;-55
2021/11/30 02:46:51;;;;;;;7.20;4.80;;;22.10;92.60;;;;;;5071602;28;20020;-57
2021/11/30 02:49:20;;;;;;;8.13;4.35;;;22.30;95.30;;;;;;5072325;28;20033;-58
2021/11/30 02:51:51;;;;;;;9.05;4.93;;;22.20;92.10;;;;;;5072581;28;20493;-61
2021/11/30 02:54:22;;;;;;;7.68;4.50;;;22.20;92.50;;;;;;5071761;28;20055;-59
2021/11/30 02:56:58;;;;;;;8.77;4.50;;;22.20;92.10;;;;;;5072740;28;20020;-61
2021/11/30 02:59:30;;;;;;;7.15;3.20;;;22.20;92.60;;;;;;5072482;28;20390;-59
2021/11/30 03:02:00;;;;;;;9.50;4.13;;;22.10;93.60;;;;;;5068766;28;20012;-61
2021/11/30 03:04:28;;;;;;;6.60;4.05;;;22.00;92.80;;;;;;5072342;28;20432;-58
2021/11/30 03:06:57;;;;;;;6.72;3.90;;;22.10;95.70;;;;;;5071597;28;20097;-53
2021/11/30 03:09:25;;;;;;;7.28;4.10;;;21.90;96.80;;;;;;5071084;28;20039;-59
2021/11/30 03:11:54;;;;;;;10.32;4.25;;;22.00;93.90;;;;;;5070577;28;20078;-61
2021/11/30 03:14:27;;;;;;;7.53;3.60;;;21.90;94.40;;;;;;5064736;28;20020;-58
2021/11/30 03:16:55;;;;;;;2.15;1.95;;;22.00;93.60;;;;;;5067304;28;20025;-60
2021/11/30 03:19:23;;;;;;;6.18;3.42;;;21.90;97.60;;;;;;5069081;28;20038;-52
2021/11/30 03:21:50;;;;;;;6.03;3.38;;;21.70;95.50;;;;;;5069503;28;20064;-57
2021/11/30 03:24:18;;;;;;;4.35;2.67;;;21.80;97.10;;;;;;5069063;28;20086;-56
2021/11/30 03:26:45;;;;;;;4.28;2.60;;;21.80;97.40;;;;;;5064889;28;20017;-55
2021/11/30 03:29:13;;;;;;;8.68;3.95;;;21.70;96.50;;;;;;5069308;28;20047;-52
2021/11/30 03:34:12;;;;;;;4.25;2.85;;;21.90;97.90;;;;;;5066971;28;20063;-51
2021/11/30 03:36:42;;;;;;;4.90;3.28;;;21.80;96.10;;;;;;5066151;28;20609;-53
2021/11/30 03:39:13;;;;;;;5.93;4.18;;;21.80;95.70;;;;;;5068821;28;20125;-60
2021/11/30 03:41:41;;;;;;;5.20;2.53;;;21.90;94.00;;;;;;5068488;28;20044;-56
2021/11/30 03:44:09;;;;;;;6.32;3.88;;;21.80;97.80;;;;;;5068273;28;20029;-52
2021/11/30 03:46:38;;;;;;;6.00;2.85;;;21.70;95.00;;;;;;5069127;28;20074;-55
2021/11/30 03:49:07;;;;;;;4.57;2.55;;;21.90;94.70;;;;;;5070392;28;20036;-54
2021/11/30 03:51:35;;;;;;;5.68;3.78;;;21.90;95.20;;;;;;5072633;28;20444;-56
2021/11/30 03:54:02;;;;;;;6.72;3.53;;;21.90;94.10;;;;;;5072854;28;20044;-51
2021/11/30 03:56:30;;;;;;;7.32;2.65;;;22.00;96.70;;;;;;5068905;28;20394;-53
2021/11/30 03:58:58;;;;;;;5.85;3.03;;;22.10;96.70;;;;;;5072279;28;20035;-53
2021/11/30 04:01:41;;;;;;;6.85;3.67;;;22.00;94.40;;;;;;5073394;28;20025;-54
2021/11/30 04:04:31;;;;;;;4.45;2.80;;;22.10;93.20;;;;;;5069874;28;20082;-52
2021/11/30 04:06:58;;;;;;;10.32;3.55;;;22.10;94.00;;;;;;5068925;28;20317;-63
2021/11/30 04:09:27;;;;;;;5.63;3.25;;;22.20;93.20;;;;;;5072969;28;20057;-58
2021/11/30 04:11:55;;;;;;;2.92;1.95;;;22.20;93.20;;;;;;5072074;28;20059;-56
2021/11/30 04:14:22;;;;;;;4.30;1.80;;;22.20;96.10;;;;;;5071144;28;20510;-57
2021/11/30 04:16:50;;;;;;;5.13;2.42;;;22.10;94.90;;;;;;5069340;28;20527;-53
2021/11/30 04:19:17;;;;;;;4.28;2.15;;;22.20;95.10;;;;;;5072668;28;20067;-53
2021/11/30 04:21:45;;;;;;;4.95;2.80;;;22.20;94.00;;;;;;5072575;28;20077;-58
2021/11/30 04:24:12;;;;;;;7.95;2.75;;;22.20;93.20;;;;;;5068490;28;20048;-60
2021/11/30 04:26:40;;;;;;;5.35;2.78;;;22.20;95.90;;;;;;5075117;28;20498;-58
2021/11/30 04:29:08;;;;;;;5.63;2.78;;;22.20;93.20;;;;;;5074920;28;20048;-56
2021/11/30 04:31:35;;;;;;;4.55;2.65;;;22.20;92.90;;;;;;5075122;28;20111;-57
2021/11/30 04:34:04;;;;;;;3.70;2.35;;;22.20;93.20;;;;;;5074739;28;20032;-55
2021/11/30 04:36:32;;;;;;;4.30;2.20;;;22.20;93.20;;;;;;5075030;28;20387;-58
2021/11/30 04:39:00;;;;;;;5.18;3.28;;;22.20;93.20;;;;;;5074710;28;20036;-58
2021/11/30 04:41:30;;;;;;;3.78;2.78;;;22.20;92.80;;;;;;5074766;28;20028;-59
2021/11/30 04:43:58;;;;;;;4.00;2.40;;;22.20;92.80;;;;;;5074283;28;20035;-55
2021/11/30 04:46:27;;;;;;;4.30;2.20;;;22.20;92.60;;;;;;5075115;28;20092;-58
2021/11/30 04:49:06;;;;;;;3.78;2.55;;;22.20;93.00;;;;;;5073963;28;20033;-59
2021/11/30 04:51:35;;;;;;;5.07;2.60;;;22.10;92.60;;;;;;5073850;28;20032;-59
2021/11/30 04:54:02;;;;;;;5.57;2.53;;;22.10;92.60;;;;;;5074149;28;20049;-57
2021/11/30 04:56:29;;;;;;;4.03;2.65;;;22.10;92.70;;;;;;5073921;28;20028;-59
2021/11/30 04:58:57;;;;;;;3.45;2.20;;;22.10;92.70;;;;;;5074318;28;20027;-59
2021/11/30 05:01:24;;;;;;;3.08;2.38;;;22.10;92.70;;;;;;5074973;28;20127;-58
2021/11/30 05:03:52;;;;;;;2.63;2.35;;;22.10;93.00;;;;;;5074841;28;20047;-55
2021/11/30 05:06:23;;;;;;;3.40;2.53;;;22.10;93.00;;;;;;5074323;28;20029;-57
2021/11/30 05:08:50;;;;;;;3.65;2.90;;;22.10;93.50;;;;;;5065816;28;20035;-56
2021/11/30 05:11:18;;;;;;;5.80;2.88;;;22.10;92.80;;;;;;5071716;28;20380;-57
2021/11/30 05:13:45;;;;;;;6.10;3.50;;;22.10;92.80;;;;;;5070527;28;20021;-56
2021/11/30 05:16:13;;;;;;;13.38;6.60;;;22.10;93.10;;;;;;5070834;28;20475;-54
2021/11/30 05:18:41;;;;;;;16.33;9.43;;;22.10;93.30;;;;;;5067907;28;20052;-57
2021/11/30 05:21:08;;;;;;;19.80;13.95;;;22.10;92.70;;;;;;5071396;28;20120;-56
2021/11/30 05:23:36;;;;;;;20.15;12.88;;;22.10;92.90;;;;;;5071192;28;20119;-56
2021/11/30 05:26:05;;;;;;;27.30;15.25;;;22.10;92.80;;;;;;5069397;28;20498;-54
2021/11/30 05:28:40;;;;;;;27.08;15.30;;;22.10;92.90;;;;;;5066834;28;20057;-53
2021/11/30 05:31:09;;;;;;;27.73;17.02;;;22.10;92.70;;;;;;5069218;28;20067;-53
2021/11/30 05:33:37;;;;;;;24.42;14.88;;;22.10;93.00;;;;;;5067869;28;20503;-58
2021/11/30 05:36:06;;;;;;;22.10;14.35;;;22.20;93.00;;;;;;5067973;28;20036;-52
2021/11/30 05:38:34;;;;;;;26.33;16.88;;;22.20;92.90;;;;;;5064527;28;20028;-59
2021/11/30 05:41:01;;;;;;;26.77;16.02;;;22.20;92.70;;;;;;5074104;28;20052;-57
2021/11/30 05:43:29;;;;;;;23.73;15.02;;;22.20;92.90;;;;;;5070552;28;20079;-58
2021/11/30 05:45:56;;;;;;;26.40;15.68;;;22.20;93.00;;;;;;5070582;28;20075;-58
2021/11/30 05:48:24;;;;;;;25.13;16.50;;;22.20;93.00;;;;;;5063612;28;20917;-57
2021/11/30 05:50:54;;;;;;;24.85;13.75;;;22.20;92.60;;;;;;5069325;28;20040;-56
2021/11/30 05:53:22;;;;;;;21.10;13.00;;;22.30;92.90;;;;;;5069752;28;20522;-55
2021/11/30 05:55:55;;;;;;;25.02;15.70;;;22.20;93.00;;;;;;5066472;28;20099;-53
2021/11/30 05:58:24;;;;;;;26.50;15.88;;;22.30;92.60;;;;;;5067404;28;20058;-56
2021/11/30 06:00:51;;;;;;;24.60;15.35;;;22.30;92.60;;;;;;5068633;28;20434;-57
2021/11/30 06:03:32;;;;;;;19.70;13.30;;;22.30;92.50;;;;;;5066828;28;20013;-59
2021/11/30 06:06:00;;;;;;;20.92;13.13;;;22.30;92.50;;;;;;5067879;28;20090;-56
2021/11/30 06:08:28;;;;;;;24.40;13.40;;;22.30;92.60;;;;;;5066069;28;20758;-61
2021/11/30 06:10:55;;;;;;;21.75;13.48;;;22.30;92.60;;;;;;5070195;28;20111;-50
2021/11/30 06:13:23;;;;;;;20.30;12.85;;;22.30;92.50;;;;;;5069246;28;20028;-58
2021/11/30 06:15:51;;;;;;;20.38;12.82;;;22.30;92.60;;;;;;5069260;28;20032;-56
2021/11/30 06:18:18;;;;;;;20.63;13.43;;;22.30;92.50;;;;;;5066466;28;20040;-57
2021/11/30 06:20:48;;;;;;;21.70;11.93;;;22.30;92.60;;;;;;5070283;28;20692;-55
2021/11/30 06:23:16;;;;;;;17.98;11.57;;;22.30;92.70;;;;;;5069732;28;20047;-53
2021/11/30 06:25:43;;;;;;;17.65;12.60;;;22.30;92.60;;;;;;5069906;28;20450;-53
2021/11/30 06:28:11;;;;;;;23.25;13.48;;;22.30;92.50;;;;;;5067137;28;20482;-54
2021/11/30 06:30:38;;;;;;;17.75;9.77;;;22.20;92.50;;;;;;5069005;28;20095;-55
2021/11/30 06:33:06;;;;;;;17.30;11.40;;;22.20;92.80;;;;;;5069821;28;20054;-52
2021/11/30 06:35:36;;;;;;;20.55;11.30;;;22.20;92.70;;;;;;5069995;28;20020;-54
2021/11/30 06:38:04;;;;;;;16.25;10.57;;;22.20;92.60;;;;;;5066846;28;20024;-58
2021/11/30 06:40:32;;;;;;;19.08;12.15;;;22.20;92.70;;;;;;5067491;28;20509;-57
2021/11/30 06:42:59;;;;;;;18.48;10.65;;;22.20;92.60;;;;;;5070174;28;20431;-53
2021/11/30 06:45:27;;;;;;;19.52;10.13;;;22.20;92.70;;;;;;5069815;28;20027;-54
2021/11/30 06:47:55;;;;;;;15.05;9.13;;;22.30;92.80;;;;;;5069079;28;20066;-55
2021/11/30 06:50:22;;;;;;;12.32;8.73;;;22.30;92.90;;;;;;5066571;28;20332;-58
2021/11/30 06:52:50;;;;;;;14.00;9.07;;;22.30;92.90;;;;;;5069641;28;20390;-56
2021/11/30 06:55:17;;;;;;;13.98;8.95;;;22.30;92.80;;;;;;5069756;28;20025;-60
2021/11/30 06:57:45;;;;;;;15.15;10.00;;;22.30;92.90;;;;;;5069003;28;20020;-63
2021/11/30 07:00:16;;;;;;;15.55;8.85;;;22.20;92.70;;;;;;5066619;28;20579;-62
2021/11/30 07:02:44;;;;;;;9.80;6.80;;;22.20;92.80;;;;;;5069776;28;20067;-57
2021/11/30 07:05:17;;;;;;;15.18;8.40;;;22.20;93.20;;;;;;5069282;28;20053;-56
2021/11/30 07:15:29;;;;;;;10.52;6.70;;;22.10;93.00;;;;;;5069493;28;20537;-58
2021/11/30 07:17:58;;;;;;;13.02;8.38;;;22.20;93.10;;;;;;5067697;28;20074;-59
2021/11/30 07:20:26;;;;;;;10.88;6.75;;;22.10;93.00;;;;;;5067964;28;20090;-57
2021/11/30 07:22:56;;;;;;;14.25;8.73;;;22.10;93.50;;;;;;5073912;28;20028;-55
2021/11/30 07:25:25;;;;;;;14.15;8.40;;;22.10;93.40;;;;;;5073433;28;20035;-61
2021/11/30 07:27:54;;;;;;;11.70;7.97;;;22.00;93.40;;;;;;5073395;28;20035;-56
2021/11/30 07:30:21;;;;;;;11.20;6.57;;;22.00;93.40;;;;;;5070078;28;20064;-59
2021/11/30 07:32:49;;;;;;;14.32;6.78;;;22.10;93.40;;;;;;5073345;28;20379;-55
2021/11/30 07:35:20;;;;;;;15.20;6.47;;;22.10;93.40;;;;;;5072845;28;20094;-58
2021/11/30 07:37:52;;;;;;;13.15;6.95;;;22.10;93.50;;;;;;5070396;28;20100;-59
2021/11/30 07:40:19;;;;;;;10.95;7.35;;;22.10;93.40;;;;;;5069845;28;20115;-59
2021/11/30 07:42:47;;;;;;;12.93;7.18;;;22.10;93.30;;;;;;5073039;28;20095;-60
2021/11/30 07:45:15;;;;;;;10.13;6.13;;;22.10;93.50;;;;;;5072320;28;20020;-53
2021/11/30 07:47:43;;;;;;;9.90;6.22;;;22.10;93.50;;;;;;5073304;28;20052;-58
2021/11/30 07:50:11;;;;;;;10.30;6.88;;;22.10;93.40;;;;;;5068606;28;20117;-52
2021/11/30 07:52:43;;;;;;;12.23;6.65;;;22.00;93.50;;;;;;5073324;28;20048;-52
2021/11/30 07:55:14;;;;;;;10.45;6.95;;;22.00;93.50;;;;;;5072750;28;20056;-57
2021/11/30 07:57:42;;;;;;;9.07;5.78;;;22.00;93.50;;;;;;5071935;28;20029;-55
2021/11/30 08:00:17;;;;;;;11.80;6.05;;;22.00;93.60;;;;;;5069580;28;21464;-55
2021/11/30 08:02:45;;;;;;;11.25;6.07;;;22.00;93.50;;;;;;5073032;28;20435;-56
2021/11/30 08:05:42;;;;;;;12.55;5.85;;;22.00;93.50;;;;;;5072769;28;20028;-55
2021/11/30 08:08:10;;;;;;;10.75;5.18;;;22.00;93.60;;;;;;5066686;28;20131;-56
2021/11/30 08:10:38;;;;;;;7.88;5.57;;;22.00;93.80;;;;;;5071599;28;20064;-59
2021/11/30 08:13:05;;;;;;;8.27;5.53;;;22.00;93.80;;;;;;5073132;28;20036;-55
2021/11/30 08:15:34;;;;;;;6.32;4.97;;;22.00;93.80;;;;;;5072869;28;20025;-58
2021/11/30 08:18:02;;;;;;;10.30;5.32;;;22.00;93.60;;;;;;5069224;28;20052;-56
2021/11/30 08:20:30;;;;;;;8.65;4.80;;;22.00;93.60;;;;;;5070125;28;20487;-57
2021/11/30 08:22:58;;;;;;;9.05;5.72;;;22.00;93.90;;;;;;5072901;28;20064;-55
2021/11/30 08:25:26;;;;;;;10.52;6.15;;;22.00;93.80;;;;;;5072908;28;20028;-58
2021/11/30 08:27:55;;;;;;;10.38;5.75;;;22.00;93.70;;;;;;5071511;28;20021;-52
2021/11/30 08:30:23;;;;;;;8.02;5.18;;;22.00;93.70;;;;;;5069381;28;20094;-59
2021/11/30 08:32:51;;;;;;;10.25;4.90;;;22.00;93.90;;;;;;5071924;28;20025;-61
2021/11/30 08:35:18;;;;;;;8.75;5.50;;;22.00;94.00;;;;;;5075236;28;20055;-59
2021/11/30 08:37:46;;;;;;;8.43;5.47;;;21.90;94.10;;;;;;5074875;28;20024;-57
2021/11/30 08:40:14;;;;;;;10.05;5.30;;;21.90;94.30;;;;;;5074950;28;20025;-60
2021/11/30 08:42:42;;;;;;;9.38;5.28;;;21.90;94.20;;;;;;5075083;28;20029;-59
2021/11/30 08:45:10;;;;;;;8.48;4.65;;;21.90;94.20;;;;;;5075071;28;20016;-59
2021/11/30 08:47:39;;;;;;;7.32;5.00;;;21.90;94.20;;;;;;5075206;28;20029;-61
2021/11/30 08:50:11;;;;;;;10.52;5.28;;;21.90;94.60;;;;;;5074874;28;20067;-61
2021/11/30 08:52:38;;;;;;;8.07;4.95;;;22.00;95.00;;;;;;5075299;28;20157;-60
2021/11/30 08:55:06;;;;;;;9.45;4.82;;;21.90;94.80;;;;;;5074927;28;20045;-55
2021/11/30 08:57:34;;;;;;;6.95;4.93;;;22.00;94.70;;;;;;5074782;28;20024;-59
2021/11/30 09:00:04;;;;;;;7.82;5.38;;;22.00;94.70;;;;;;5073650;28;20089;-56
2021/11/30 09:02:32;;;;;;;9.07;4.32;;;22.00;94.50;;;;;;5074948;28;20028;-63
2021/11/30 09:04:59;;;;;;;9.13;4.70;;;22.00;94.60;;;;;;5074647;28;20028;-57
2021/11/30 09:07:27;;;;;;;5.97;4.50;;;22.00;94.80;;;;;;5073608;28;20429;-51
2021/11/30 09:09:54;;;;;;;5.18;3.80;;;21.90;94.60;;;;;;5074518;28;20510;-58
2021/11/30 09:12:22;;;;;;;8.43;4.50;;;21.90;94.60;;;;;;5074937;28;20029;-57
2021/11/30 09:14:50;;;;;;;7.95;4.40;;;21.90;94.60;;;;;;5073676;28;20025;-60
2021/11/30 09:17:20;;;;;;;10.90;4.88;;;21.90;94.60;;;;;;5073316;28;20035;-56
2021/11/30 09:19:47;;;;;;;7.53;4.50;;;21.90;94.60;;;;;;5074399;28;20101;-63
2021/11/30 09:22:15;;;;;;;7.20;4.60;;;21.90;94.70;;;;;;5074156;28;20036;-58
2021/11/30 09:24:42;;;;;;;8.52;4.75;;;21.90;94.80;;;;;;5064022;28;20024;-57
2021/11/30 09:27:10;;;;;;;8.23;4.47;;;21.90;94.80;;;;;;5070042;28;20106;-58
2021/11/30 09:29:37;;;;;;;6.90;4.75;;;21.90;94.90;;;;;;5069387;28;20040;-59
2021/11/30 09:32:05;;;;;;;8.73;4.18;;;21.90;94.80;;;;;;5067387;28;20111;-60
2021/11/30 09:34:32;;;;;;;6.68;4.28;;;21.90;94.90;;;;;;5071428;28;20031;-58
2021/11/30 09:37:00;;;;;;;7.45;4.07;;;21.90;94.90;;;;;;5067855;28;20091;-60
2021/11/30 09:39:27;;;;;;;6.95;3.80;;;21.90;94.90;;;;;;5069468;28;20024;-56
2021/11/30 09:41:55;;;;;;;6.88;4.00;;;21.80;94.90;;;;;;5071063;28;20445;-58
2021/11/30 09:44:22;;;;;;;7.18;3.88;;;21.80;94.90;;;;;;5071117;28;20479;-60
2021/11/30 09:46:50;;;;;;;7.38;4.38;;;21.80;95.00;;;;;;5070692;28;20035;-61
2021/11/30 09:49:19;;;;;;;11.75;4.47;;;21.80;94.90;;;;;;5065722;28;20021;-60
2021/11/30 09:51:46;;;;;;;5.32;3.63;;;21.80;94.90;;;;;;5070858;28;20033;-57
2021/11/30 09:54:14;;;;;;;6.75;4.15;;;21.80;94.90;;;;;;5070014;28;20039;-56
2021/11/30 09:56:41;;;;;;;5.38;3.85;;;21.80;94.90;;;;;;5070682;28;20075;-59
2021/11/30 09:59:09;;;;;;;4.68;3.25;;;21.90;94.90;;;;;;5067556;28;20035;-56
2021/11/30 10:01:37;;;;;;;6.45;4.13;;;21.80;94.90;;;;;;5067999;28;20025;-56
2021/11/30 10:04:04;;;;;;;5.80;3.78;;;21.80;94.80;;;;;;5070511;28;20570;-60
2021/11/30 10:06:32;;;;;;;5.07;3.50;;;21.80;94.90;;;;;;5070630;28;20107;-57
2021/11/30 10:09:00;;;;;;;6.38;3.40;;;21.80;94.90;;;;;;5065892;28;20025;-54
2021/11/30 10:11:34;;;;;;;6.68;3.45;;;21.80;94.90;;;;;;5069646;28;20445;-56
2021/11/30 10:14:24;;;;;;;8.60;3.42;;;21.80;94.90;;;;;;5067531;28;20723;-60
2021/11/30 10:17:09;;;;;;;4.03;3.03;;;21.80;94.90;;;;;;5069440;28;20028;-56
2021/11/30 10:19:38;;;;;;;4.93;3.22;;;21.80;94.90;;;;;;5067641;28;20455;-60
2021/11/30 10:22:06;;;;;;;7.20;4.10;;;21.80;94.80;;;;;;5069890;28;20039;-58
2021/11/30 10:24:34;;;;;;;5.50;3.15;;;21.80;94.90;;;;;;5070397;28;20102;-58
2021/11/30 10:27:02;;;;;;;4.72;3.13;;;21.80;95.00;;;;;;5067562;28;20028;-60
2021/11/30 10:29:30;;;;;;;8.98;3.90;;;21.80;95.30;;;;;;5068242;28;20135;-56
2021/11/30 10:31:58;;;;;;;5.63;3.15;;;21.70;95.20;;;;;;5069817;28;20016;-58
2021/11/30 10:34:30;;;;;;;4.22;2.95;;;21.70;95.10;;;;;;5070715;28;20062;-52
2021/11/30 10:37:09;;;;;;;4.88;2.83;;;21.70;95.10;;;;;;5070450;28;20518;-53
2021/11/30 10:39:42;;;;;;;8.48;3.30;;;21.70;95.20;;;;;;5062892;28;20036;-55
2021/11/30 10:42:26;;;;;;;5.80;2.78;;;21.60;95.20;;;;;;5070142;28;20017;-55
2021/11/30 10:44:57;;;;;;;5.38;2.80;;;21.60;95.10;;;;;;5066687;28;20441;-55
2021/11/30 10:47:27;;;;;;;6.18;2.90;;;21.60;95.10;;;;;;5066592;28;20023;-58
2021/11/30 10:50:21;;;;;;;5.60;2.53;;;21.60;95.10;;;;;;5066314;28;20127;-53
2021/11/30 10:52:57;;;;;;;4.72;3.10;;;21.60;95.10;;;;;;5067376;28;20020;-54
2021/11/30 10:55:25;;;;;;;4.78;2.67;;;21.60;95.00;;;;;;5068888;28;20047;-56
2021/11/30 10:57:52;;;;;;;6.32;2.95;;;21.60;95.10;;;;;;5069786;28;20033;-56
2021/11/30 11:00:26;;;;;;;4.07;2.88;;;21.60;95.10;;;;;;5066611;28;20024;-59
2021/11/30 11:03:05;;;;;;;3.92;2.45;;;21.60;95.10;;;;;;5069354;28;20031;-60
2021/11/30 11:05:57;;;;;;;5.97;2.90;;;21.60;95.30;;;;;;5063901;28;20025;-54
2021/11/30 11:08:25;;;;;;;4.70;2.78;;;21.60;95.20;;;;;;5067270;28;20051;-57
2021/11/30 11:11:02;;;;;;;3.13;2.17;;;21.60;95.30;;;;;;5068578;28;20037;-58
2021/11/30 11:13:35;;;;;;;4.10;3.13;;;21.60;95.30;;;;;;5070208;28;20024;-57
2021/11/30 11:16:06;;;;;;;6.25;2.70;;;21.60;95.30;;;;;;5069892;28;20437;-58
2021/11/30 11:18:38;;;;;;;5.15;3.13;;;21.60;95.10;;;;;;5067035;28;20020;-55
2021/11/30 11:21:16;;;;;;;4.97;2.53;;;21.60;95.10;;;;;;5069294;28;20107;-58
2021/11/30 11:23:50;;;;;;;4.18;2.63;;;21.60;95.00;;;;;;5066995;28;20117;-58
2021/11/30 11:26:25;;;;;;;5.68;2.65;;;21.60;95.00;;;;;;5066994;28;20118;-58
2021/11/30 11:28:55;;;;;;;3.70;2.40;;;21.60;94.90;;;;;;5065946;28;20486;-58
2021/11/30 11:31:27;;;;;;;3.72;2.75;;;21.60;94.90;;;;;;5069862;28;20033;-58
2021/11/30 11:33:56;;;;;;;4.85;2.35;;;21.60;95.00;;;;;;5068371;28;20020;-60
2021/11/30 11:36:24;;;;;;;4.13;2.35;;;21.60;94.90;;;;;;5069410;28;20112;-57
2021/11/30 11:38:52;;;;;;;3.10;2.10;;;21.60;95.00;;;;;;5065996;28;20032;-59
2021/11/30 11:41:20;;;;;;;2.20;2.00;;;21.60;95.10;;;;;;5068602;28;20020;-58
2021/11/30 11:43:47;;;;;;;2.42;1.70;;;21.60;94.90;;;;;;5069430;28;20028;-57
2021/11/30 11:46:17;;;;;;;3.30;2.05;;;21.60;94.90;;;;;;5069317;28;20039;-56
2021/11/30 11:48:48;;;;;;;3.85;2.40;;;21.50;95.10;;;;;;5066079;28;20488;-59
2021/11/30 11:51:16;;;;;;;5.43;2.42;;;21.60;94.90;;;;;;5069076;28;20427;-55
2021/11/30 11:53:57;;;;;;;4.07;2.35;;;21.60;94.90;;;;;;5069528;28;20113;-61
2021/11/30 11:56:32;;;;;;;3.97;2.05;;;21.50;94.80;;;;;;5066904;28;20032;-56
2021/11/30 11:59:16;;;;;;;3.85;2.20;;;21.60;94.90;;;;;;5066348;28;20040;-57
2021/11/30 12:02:37;;;;;;;4.30;2.75;;;21.60;94.80;;;;;;5070081;28;20027;-57
2021/11/30 12:05:08;;;;;;;4.28;2.13;;;21.60;95.10;;;;;;5067656;28;20036;-55
2021/11/30 12:08:17;;;;;;;;;;;;;;;;;;;;;
2021/11/30 12:10:45;;;;;;;4.80;2.70;;;21.60;94.80;;;;;;5069236;28;20044;-60
2021/11/30 12:13:17;;;;;;;4.43;2.13;;;21.60;94.70;;;;;;5073676;28;20021;-57
2021/11/30 12:16:09;;;;;;;4.05;2.20;;;21.60;94.80;;;;;;5073338;28;20024;-57
2021/11/30 12:18:47;;;;;;;4.10;2.13;;;21.50;94.80;;;;;;5066123;28;20036;-58
2021/11/30 12:21:17;;;;;;;2.65;1.90;;;21.50;94.80;;;;;;5070952;28;20356;-57
2021/11/30 12:23:50;;;;;;;5.10;2.28;;;21.50;94.70;;;;;;5073077;28;20028;-62
2021/11/30 12:26:49;;;;;;;2.97;2.03;;;21.50;94.70;;;;;;5073447;28;20060;-62
2021/11/30 12:29:20;;;;;;;3.28;2.00;;;21.50;94.70;;;;;;5067172;28;20025;-60
2021/11/30 12:31:51;;;;;;;3.53;2.20;;;21.50;94.70;;;;;;5073385;28;20150;-63
2021/11/30 12:34:49;;;;;;;4.80;2.67;;;21.50;94.70;;;;;;5075832;28;20036;-65
2021/11/30 12:37:25;;;;;;;4.90;2.50;;;21.50;94.70;;;;;;5067291;28;20064;-61
2021/11/30 12:40:05;;;;;;;3.13;2.05;;;21.40;94.80;;;;;;5075048;28;20060;-57
2021/11/30 12:42:56;;;;;;;3.92;2.10;;;21.40;94.80;;;;;;5075538;28;20017;-59
2021/11/30 12:45:48;;;;;;;3.15;2.03;;;21.40;94.80;;;;;;5075385;28;20060;-62
2021/11/30 12:48:35;;;;;;;3.03;1.88;;;21.40;94.90;;;;;;5069294;28;20035;-58
2021/11/30 12:51:28;;;;;;;4.55;2.05;;;21.40;94.90;;;;;;5072361;28;20501;-62
2021/11/30 12:54:23;;;;;;;4.15;2.05;;;21.30;94.90;;;;;;5069025;28;20135;-55
2021/11/30 12:56:55;;;;;;;4.38;2.13;;;21.30;94.90;;;;;;5064596;28;20506;-54
2021/11/30 12:59:50;;;;;;;3.40;1.95;;;21.30;94.90;;;;;;5070119;28;20077;-57
2021/11/30 13:02:39;;;;;;;2.28;1.67;;;21.30;95.00;;;;;;5071833;28;20486;-56
2021/11/30 13:05:10;;;;;;;4.22;2.15;;;21.30;94.90;;;;;;5067615;28;20025;-55
2021/11/30 13:08:03;;;;;;;3.67;1.80;;;21.30;94.90;;;;;;5072314;28;20491;-60
2021/11/30 13:10:44;;;;;;;2.55;1.48;;;21.30;94.80;;;;;;5066040;28;20048;-55
2021/11/30 13:13:20;;;;;;;3.60;2.17;;;21.30;94.80;;;;;;5072448;28;20537;-59
2021/11/30 13:15:52;;;;;;;4.55;1.83;;;21.20;94.90;;;;;;5067911;28;20384;-57
2021/11/30 13:18:20;;;;;;;4.55;2.40;;;21.20;94.90;;;;;;5074274;28;20561;-60
2021/11/30 13:21:00;;;;;;;3.88;1.98;;;21.20;95.20;;;;;;5067144;28;20039;-56